<?xml version="1.0" encoding="UTF-8" standalone="no" ?>
<gpx xmlns="http://www.topografix.com/GPX/1/1" xmlns:xsi="http://www.w3.org/2001/XMLSchema-instance" xsi:schemaLocation="http://www.topografix.com/GPX/1/1 http://www.topografix.com/GPX/1/1/gpx.xsd" version="1.1" creator="VisuGPX - https://www.visugpx.com">
  <metadata>
    <name>Erdeven_AlignementKerzerho_20km</name>
    <desc><![CDATA[gnerando idor:10164488]]></desc>
  </metadata>
  <trk>
    <name><![CDATA[Erdeven_AlignementKerzerho_20km-10164488]]></name>
    <extensions>
      <line xmlns="http://www.topografix.com/GPX/gpx_style/0/2">
        <color>0000FF</color>
        <width>4</width>
      </line>
    </extensions>
    <trkseg>
      <trkpt lat="47.63513" lon="-3.14951">
        <ele>17</ele>
        <time>2023-11-01T17:06:29Z</time>
      </trkpt>
      <trkpt lat="47.63485" lon="-3.14904">
        <ele>17</ele>
        <time>2023-11-01T17:07:25Z</time>
      </trkpt>
      <trkpt lat="47.63489" lon="-3.14863">
        <ele>17</ele>
        <time>2023-11-01T17:08:03Z</time>
      </trkpt>
      <trkpt lat="47.63585" lon="-3.14874">
        <ele>19</ele>
        <time>2023-11-01T17:10:11Z</time>
      </trkpt>
      <trkpt lat="47.63647" lon="-3.14801">
        <ele>19</ele>
        <time>2023-11-01T17:11:57Z</time>
      </trkpt>
      <trkpt lat="47.63594" lon="-3.14729">
        <ele>19</ele>
        <time>2023-11-01T17:13:33Z</time>
      </trkpt>
      <trkpt lat="47.63561" lon="-3.14681">
        <ele>17</ele>
        <time>2023-11-01T17:14:34Z</time>
      </trkpt>
      <trkpt lat="47.63515" lon="-3.14512">
        <ele>16</ele>
        <time>2023-11-01T17:17:18Z</time>
      </trkpt>
      <trkpt lat="47.63568" lon="-3.14478">
        <ele>18</ele>
        <time>2023-11-01T17:18:35Z</time>
      </trkpt>
      <trkpt lat="47.63641" lon="-3.14478">
        <ele>18</ele>
        <time>2023-11-01T17:20:13Z</time>
      </trkpt>
      <trkpt lat="47.63722" lon="-3.14463">
        <ele>17</ele>
        <time>2023-11-01T17:22:02Z</time>
      </trkpt>
      <trkpt lat="47.63762" lon="-3.14497">
        <ele>16</ele>
        <time>2023-11-01T17:23:03Z</time>
      </trkpt>
      <trkpt lat="47.6379" lon="-3.14531">
        <ele>16</ele>
        <time>2023-11-01T17:23:51Z</time>
      </trkpt>
      <trkpt lat="47.63816" lon="-3.14528">
        <ele>16</ele>
        <time>2023-11-01T17:24:26Z</time>
      </trkpt>
      <trkpt lat="47.63835" lon="-3.1454">
        <ele>16</ele>
        <time>2023-11-01T17:24:54Z</time>
      </trkpt>
      <trkpt lat="47.63842" lon="-3.14549">
        <ele>16</ele>
        <time>2023-11-01T17:25:06Z</time>
      </trkpt>
      <trkpt lat="47.63866" lon="-3.14609">
        <ele>17</ele>
        <time>2023-11-01T17:26:09Z</time>
      </trkpt>
      <trkpt lat="47.63885" lon="-3.14625">
        <ele>17</ele>
        <time>2023-11-01T17:26:38Z</time>
      </trkpt>
      <trkpt lat="47.63944" lon="-3.14553">
        <ele>17</ele>
        <time>2023-11-01T17:28:20Z</time>
      </trkpt>
      <trkpt lat="47.63901" lon="-3.14467">
        <ele>17</ele>
        <time>2023-11-01T17:29:56Z</time>
      </trkpt>
      <trkpt lat="47.63878" lon="-3.14389">
        <ele>18</ele>
        <time>2023-11-01T17:31:13Z</time>
      </trkpt>
      <trkpt lat="47.63842" lon="-3.1431">
        <ele>19</ele>
        <time>2023-11-01T17:32:39Z</time>
      </trkpt>
      <trkpt lat="47.63819" lon="-3.14246">
        <ele>20</ele>
        <time>2023-11-01T17:33:44Z</time>
      </trkpt>
      <trkpt lat="47.63729" lon="-3.14164">
        <ele>19</ele>
        <time>2023-11-01T17:36:05Z</time>
      </trkpt>
      <trkpt lat="47.6371" lon="-3.14111">
        <ele>17</ele>
        <time>2023-11-01T17:36:59Z</time>
      </trkpt>
      <trkpt lat="47.63687" lon="-3.14033">
        <ele>17</ele>
        <time>2023-11-01T17:38:15Z</time>
      </trkpt>
      <trkpt lat="47.63687" lon="-3.13975">
        <ele>17</ele>
        <time>2023-11-01T17:39:07Z</time>
      </trkpt>
      <trkpt lat="47.63672" lon="-3.1393">
        <ele>18</ele>
        <time>2023-11-01T17:39:53Z</time>
      </trkpt>
      <trkpt lat="47.6363" lon="-3.13876">
        <ele>18</ele>
        <time>2023-11-01T17:41:07Z</time>
      </trkpt>
      <trkpt lat="47.63603" lon="-3.13803">
        <ele>18</ele>
        <time>2023-11-01T17:42:22Z</time>
      </trkpt>
      <trkpt lat="47.63643" lon="-3.13589">
        <ele>19</ele>
        <time>2023-11-01T17:45:41Z</time>
      </trkpt>
      <trkpt lat="47.6363" lon="-3.13547">
        <ele>20</ele>
        <time>2023-11-01T17:46:23Z</time>
      </trkpt>
      <trkpt lat="47.63592" lon="-3.13566">
        <ele>20</ele>
        <time>2023-11-01T17:47:16Z</time>
      </trkpt>
      <trkpt lat="47.63564" lon="-3.13592">
        <ele>20</ele>
        <time>2023-11-01T17:48:00Z</time>
      </trkpt>
      <trkpt lat="47.63519" lon="-3.13631">
        <ele>19</ele>
        <time>2023-11-01T17:49:10Z</time>
      </trkpt>
      <trkpt lat="47.63487" lon="-3.13639">
        <ele>19</ele>
        <time>2023-11-01T17:49:53Z</time>
      </trkpt>
      <trkpt lat="47.63494" lon="-3.13592">
        <ele>20</ele>
        <time>2023-11-01T17:50:37Z</time>
      </trkpt>
      <trkpt lat="47.63526" lon="-3.13504">
        <ele>21</ele>
        <time>2023-11-01T17:52:06Z</time>
      </trkpt>
      <trkpt lat="47.63554" lon="-3.13418">
        <ele>20</ele>
        <time>2023-11-01T17:53:32Z</time>
      </trkpt>
      <trkpt lat="47.63532" lon="-3.13387">
        <ele>21</ele>
        <time>2023-11-01T17:54:13Z</time>
      </trkpt>
      <trkpt lat="47.63529" lon="-3.13293">
        <ele>23</ele>
        <time>2023-11-01T17:55:37Z</time>
      </trkpt>
      <trkpt lat="47.635" lon="-3.13279">
        <ele>24</ele>
        <time>2023-11-01T17:56:18Z</time>
      </trkpt>
      <trkpt lat="47.63449" lon="-3.13282">
        <ele>23</ele>
        <time>2023-11-01T17:57:26Z</time>
      </trkpt>
      <trkpt lat="47.63381" lon="-3.13246">
        <ele>24</ele>
        <time>2023-11-01T17:59:03Z</time>
      </trkpt>
      <trkpt lat="47.6339" lon="-3.1314">
        <ele>25</ele>
        <time>2023-11-01T18:00:39Z</time>
      </trkpt>
      <trkpt lat="47.63371" lon="-3.13243">
        <ele>24</ele>
        <time>2023-11-01T18:02:15Z</time>
      </trkpt>
      <trkpt lat="47.63206" lon="-3.13246">
        <ele>18</ele>
        <time>2023-11-01T18:05:55Z</time>
      </trkpt>
      <trkpt lat="47.63188" lon="-3.13063">
        <ele>19</ele>
        <time>2023-11-01T18:08:41Z</time>
      </trkpt>
      <trkpt lat="47.63214" lon="-3.12916">
        <ele>22</ele>
        <time>2023-11-01T18:10:58Z</time>
      </trkpt>
      <trkpt lat="47.63259" lon="-3.12727">
        <ele>22</ele>
        <time>2023-11-01T18:13:58Z</time>
      </trkpt>
      <trkpt lat="47.63258" lon="-3.12664">
        <ele>21</ele>
        <time>2023-11-01T18:14:55Z</time>
      </trkpt>
      <trkpt lat="47.63237" lon="-3.12629">
        <ele>20</ele>
        <time>2023-11-01T18:15:37Z</time>
      </trkpt>
      <trkpt lat="47.63237" lon="-3.12558">
        <ele>20</ele>
        <time>2023-11-01T18:16:41Z</time>
      </trkpt>
      <trkpt lat="47.63214" lon="-3.12449">
        <ele>20</ele>
        <time>2023-11-01T18:18:24Z</time>
      </trkpt>
      <trkpt lat="47.63218" lon="-3.12416">
        <ele>21</ele>
        <time>2023-11-01T18:18:54Z</time>
      </trkpt>
      <trkpt lat="47.63266" lon="-3.12279">
        <ele>23</ele>
        <time>2023-11-01T18:21:13Z</time>
      </trkpt>
      <trkpt lat="47.63288" lon="-3.12282">
        <ele>23</ele>
        <time>2023-11-01T18:21:42Z</time>
      </trkpt>
      <trkpt lat="47.63326" lon="-3.12091">
        <ele>22</ele>
        <time>2023-11-01T18:24:41Z</time>
      </trkpt>
      <trkpt lat="47.63307" lon="-3.12073">
        <ele>22</ele>
        <time>2023-11-01T18:25:11Z</time>
      </trkpt>
      <trkpt lat="47.63247" lon="-3.12063">
        <ele>23</ele>
        <time>2023-11-01T18:26:32Z</time>
      </trkpt>
      <trkpt lat="47.63174" lon="-3.12035">
        <ele>21</ele>
        <time>2023-11-01T18:28:12Z</time>
      </trkpt>
      <trkpt lat="47.63137" lon="-3.1221">
        <ele>21</ele>
        <time>2023-11-01T18:30:57Z</time>
      </trkpt>
      <trkpt lat="47.63098" lon="-3.12179">
        <ele>22</ele>
        <time>2023-11-01T18:31:56Z</time>
      </trkpt>
      <trkpt lat="47.63045" lon="-3.1216">
        <ele>21</ele>
        <time>2023-11-01T18:33:09Z</time>
      </trkpt>
      <trkpt lat="47.63002" lon="-3.12157">
        <ele>20</ele>
        <time>2023-11-01T18:34:07Z</time>
      </trkpt>
      <trkpt lat="47.62959" lon="-3.12137">
        <ele>21</ele>
        <time>2023-11-01T18:35:07Z</time>
      </trkpt>
      <trkpt lat="47.62914" lon="-3.12133">
        <ele>22</ele>
        <time>2023-11-01T18:36:07Z</time>
      </trkpt>
      <trkpt lat="47.62863" lon="-3.12147">
        <ele>22</ele>
        <time>2023-11-01T18:37:16Z</time>
      </trkpt>
      <trkpt lat="47.62814" lon="-3.12127">
        <ele>22</ele>
        <time>2023-11-01T18:38:24Z</time>
      </trkpt>
      <trkpt lat="47.62784" lon="-3.12084">
        <ele>22</ele>
        <time>2023-11-01T18:39:20Z</time>
      </trkpt>
      <trkpt lat="47.62724" lon="-3.12169">
        <ele>19</ele>
        <time>2023-11-01T18:41:10Z</time>
      </trkpt>
      <trkpt lat="47.62656" lon="-3.12302">
        <ele>17</ele>
        <time>2023-11-01T18:43:40Z</time>
      </trkpt>
      <trkpt lat="47.62608" lon="-3.12504">
        <ele>19</ele>
        <time>2023-11-01T18:46:53Z</time>
      </trkpt>
      <trkpt lat="47.62493" lon="-3.12677">
        <ele>24</ele>
        <time>2023-11-01T18:50:32Z</time>
      </trkpt>
      <trkpt lat="47.62477" lon="-3.1269">
        <ele>23</ele>
        <time>2023-11-01T18:50:56Z</time>
      </trkpt>
      <trkpt lat="47.62452" lon="-3.12684">
        <ele>24</ele>
        <time>2023-11-01T18:51:30Z</time>
      </trkpt>
      <trkpt lat="47.62437" lon="-3.12641">
        <ele>24</ele>
        <time>2023-11-01T18:52:13Z</time>
      </trkpt>
      <trkpt lat="47.62443" lon="-3.12594">
        <ele>23</ele>
        <time>2023-11-01T18:52:56Z</time>
      </trkpt>
      <trkpt lat="47.62488" lon="-3.1247">
        <ele>20</ele>
        <time>2023-11-01T18:55:03Z</time>
      </trkpt>
      <trkpt lat="47.62495" lon="-3.12414">
        <ele>19</ele>
        <time>2023-11-01T18:55:54Z</time>
      </trkpt>
      <trkpt lat="47.62484" lon="-3.12259">
        <ele>19</ele>
        <time>2023-11-01T18:58:14Z</time>
      </trkpt>
      <trkpt lat="47.62491" lon="-3.12158">
        <ele>19</ele>
        <time>2023-11-01T18:59:46Z</time>
      </trkpt>
      <trkpt lat="47.62485" lon="-3.12051">
        <ele>18</ele>
        <time>2023-11-01T19:01:22Z</time>
      </trkpt>
      <trkpt lat="47.6245" lon="-3.1206">
        <ele>18</ele>
        <time>2023-11-01T19:02:10Z</time>
      </trkpt>
      <trkpt lat="47.62403" lon="-3.12126">
        <ele>18</ele>
        <time>2023-11-01T19:03:36Z</time>
      </trkpt>
      <trkpt lat="47.62418" lon="-3.12165">
        <ele>19</ele>
        <time>2023-11-01T19:04:16Z</time>
      </trkpt>
      <trkpt lat="47.62402" lon="-3.12129">
        <ele>18</ele>
        <time>2023-11-01T19:04:55Z</time>
      </trkpt>
      <trkpt lat="47.62382" lon="-3.12147">
        <ele>19</ele>
        <time>2023-11-01T19:05:26Z</time>
      </trkpt>
      <trkpt lat="47.62348" lon="-3.12156">
        <ele>19</ele>
        <time>2023-11-01T19:06:12Z</time>
      </trkpt>
      <trkpt lat="47.62307" lon="-3.12211">
        <ele>19</ele>
        <time>2023-11-01T19:07:26Z</time>
      </trkpt>
      <trkpt lat="47.62234" lon="-3.12193">
        <ele>19</ele>
        <time>2023-11-01T19:09:05Z</time>
      </trkpt>
      <trkpt lat="47.62111" lon="-3.12084">
        <ele>17</ele>
        <time>2023-11-01T19:12:16Z</time>
      </trkpt>
      <trkpt lat="47.62059" lon="-3.12149">
        <ele>19</ele>
        <time>2023-11-01T19:13:47Z</time>
      </trkpt>
      <trkpt lat="47.6208" lon="-3.12238">
        <ele>19</ele>
        <time>2023-11-01T19:15:12Z</time>
      </trkpt>
      <trkpt lat="47.62063" lon="-3.12277">
        <ele>19</ele>
        <time>2023-11-01T19:15:54Z</time>
      </trkpt>
      <trkpt lat="47.62038" lon="-3.12438">
        <ele>18</ele>
        <time>2023-11-01T19:18:22Z</time>
      </trkpt>
      <trkpt lat="47.62061" lon="-3.12458">
        <ele>18</ele>
        <time>2023-11-01T19:18:58Z</time>
      </trkpt>
      <trkpt lat="47.62044" lon="-3.12545">
        <ele>18</ele>
        <time>2023-11-01T19:20:19Z</time>
      </trkpt>
      <trkpt lat="47.62035" lon="-3.12634">
        <ele>18</ele>
        <time>2023-11-01T19:21:40Z</time>
      </trkpt>
      <trkpt lat="47.61981" lon="-3.12733">
        <ele>18</ele>
        <time>2023-11-01T19:23:35Z</time>
      </trkpt>
      <trkpt lat="47.61949" lon="-3.1285">
        <ele>18</ele>
        <time>2023-11-01T19:25:28Z</time>
      </trkpt>
      <trkpt lat="47.6197" lon="-3.12862">
        <ele>18</ele>
        <time>2023-11-01T19:25:58Z</time>
      </trkpt>
      <trkpt lat="47.61974" lon="-3.12884">
        <ele>18</ele>
        <time>2023-11-01T19:26:19Z</time>
      </trkpt>
      <trkpt lat="47.61958" lon="-3.12946">
        <ele>18</ele>
        <time>2023-11-01T19:27:19Z</time>
      </trkpt>
      <trkpt lat="47.61961" lon="-3.12991">
        <ele>18</ele>
        <time>2023-11-01T19:27:59Z</time>
      </trkpt>
      <trkpt lat="47.61963" lon="-3.1304">
        <ele>18</ele>
        <time>2023-11-01T19:28:43Z</time>
      </trkpt>
      <trkpt lat="47.61951" lon="-3.13103">
        <ele>18</ele>
        <time>2023-11-01T19:29:42Z</time>
      </trkpt>
      <trkpt lat="47.61917" lon="-3.13101">
        <ele>18</ele>
        <time>2023-11-01T19:30:28Z</time>
      </trkpt>
      <trkpt lat="47.61878" lon="-3.13086">
        <ele>19</ele>
        <time>2023-11-01T19:31:21Z</time>
      </trkpt>
      <trkpt lat="47.61808" lon="-3.13074">
        <ele>21</ele>
        <time>2023-11-01T19:32:55Z</time>
      </trkpt>
      <trkpt lat="47.61742" lon="-3.13043">
        <ele>22</ele>
        <time>2023-11-01T19:34:28Z</time>
      </trkpt>
      <trkpt lat="47.61681" lon="-3.13002">
        <ele>20</ele>
        <time>2023-11-01T19:35:57Z</time>
      </trkpt>
      <trkpt lat="47.61571" lon="-3.1282">
        <ele>17</ele>
        <time>2023-11-01T19:39:37Z</time>
      </trkpt>
      <trkpt lat="47.61542" lon="-3.12781">
        <ele>18</ele>
        <time>2023-11-01T19:40:29Z</time>
      </trkpt>
      <trkpt lat="47.61502" lon="-3.12752">
        <ele>18</ele>
        <time>2023-11-01T19:41:29Z</time>
      </trkpt>
      <trkpt lat="47.61453" lon="-3.12756">
        <ele>17</ele>
        <time>2023-11-01T19:42:34Z</time>
      </trkpt>
      <trkpt lat="47.61439" lon="-3.12747">
        <ele>17</ele>
        <time>2023-11-01T19:42:55Z</time>
      </trkpt>
      <trkpt lat="47.61433" lon="-3.12755">
        <ele>17</ele>
        <time>2023-11-01T19:43:05Z</time>
      </trkpt>
      <trkpt lat="47.61389" lon="-3.12705">
        <ele>18</ele>
        <time>2023-11-01T19:44:19Z</time>
      </trkpt>
      <trkpt lat="47.61374" lon="-3.1269">
        <ele>17</ele>
        <time>2023-11-01T19:44:43Z</time>
      </trkpt>
      <trkpt lat="47.61328" lon="-3.12684">
        <ele>16</ele>
        <time>2023-11-01T19:45:45Z</time>
      </trkpt>
      <trkpt lat="47.61299" lon="-3.12648">
        <ele>17</ele>
        <time>2023-11-01T19:46:36Z</time>
      </trkpt>
      <trkpt lat="47.61281" lon="-3.12592">
        <ele>18</ele>
        <time>2023-11-01T19:47:31Z</time>
      </trkpt>
      <trkpt lat="47.61243" lon="-3.12538">
        <ele>18</ele>
        <time>2023-11-01T19:48:42Z</time>
      </trkpt>
      <trkpt lat="47.61211" lon="-3.1251">
        <ele>18</ele>
        <time>2023-11-01T19:49:31Z</time>
      </trkpt>
      <trkpt lat="47.61164" lon="-3.12482">
        <ele>18</ele>
        <time>2023-11-01T19:50:39Z</time>
      </trkpt>
      <trkpt lat="47.6113" lon="-3.12468">
        <ele>18</ele>
        <time>2023-11-01T19:51:26Z</time>
      </trkpt>
      <trkpt lat="47.61029" lon="-3.1245">
        <ele>19</ele>
        <time>2023-11-01T19:53:42Z</time>
      </trkpt>
      <trkpt lat="47.61021" lon="-3.12564">
        <ele>19</ele>
        <time>2023-11-01T19:55:25Z</time>
      </trkpt>
      <trkpt lat="47.61069" lon="-3.12633">
        <ele>20</ele>
        <time>2023-11-01T19:56:54Z</time>
      </trkpt>
      <trkpt lat="47.61093" lon="-3.12677">
        <ele>20</ele>
        <time>2023-11-01T19:57:45Z</time>
      </trkpt>
      <trkpt lat="47.61068" lon="-3.12839">
        <ele>16</ele>
        <time>2023-11-01T20:00:14Z</time>
      </trkpt>
      <trkpt lat="47.60958" lon="-3.13289">
        <ele>20</ele>
        <time>2023-11-01T20:07:25Z</time>
      </trkpt>
      <trkpt lat="47.60826" lon="-3.13484">
        <ele>21</ele>
        <time>2023-11-01T20:11:34Z</time>
      </trkpt>
      <trkpt lat="47.60653" lon="-3.13553">
        <ele>14</ele>
        <time>2023-11-01T20:15:33Z</time>
      </trkpt>
      <trkpt lat="47.60485" lon="-3.135">
        <ele>5</ele>
        <time>2023-11-01T20:19:22Z</time>
      </trkpt>
      <trkpt lat="47.60334" lon="-3.13658">
        <ele>3</ele>
        <time>2023-11-01T20:23:28Z</time>
      </trkpt>
      <trkpt lat="47.60358" lon="-3.13817">
        <ele>6</ele>
        <time>2023-11-01T20:25:55Z</time>
      </trkpt>
      <trkpt lat="47.59921" lon="-3.13812">
        <ele>4</ele>
        <time>2023-11-01T20:35:38Z</time>
      </trkpt>
      <trkpt lat="47.59897" lon="-3.1373">
        <ele>3</ele>
        <time>2023-11-01T20:36:59Z</time>
      </trkpt>
      <trkpt lat="47.59591" lon="-3.13184">
        <ele>4</ele>
        <time>2023-11-01T20:47:38Z</time>
      </trkpt>
      <trkpt lat="47.59832" lon="-3.12995">
        <ele>5</ele>
        <time>2023-11-01T20:53:41Z</time>
      </trkpt>
      <trkpt lat="47.6" lon="-3.12587">
        <ele>10</ele>
        <time>2023-11-01T21:00:52Z</time>
      </trkpt>
      <trkpt lat="47.60104" lon="-3.12434">
        <ele>14</ele>
        <time>2023-11-01T21:04:07Z</time>
      </trkpt>
      <trkpt lat="47.60254" lon="-3.12228">
        <ele>18</ele>
        <time>2023-11-01T21:08:40Z</time>
      </trkpt>
      <trkpt lat="47.61145" lon="-3.11769">
        <ele>18</ele>
        <time>2023-11-01T21:29:38Z</time>
      </trkpt>
      <trkpt lat="47.61189" lon="-3.11793">
        <ele>18</ele>
        <time>2023-11-01T21:30:41Z</time>
      </trkpt>
      <trkpt lat="47.61268" lon="-3.11694">
        <ele>18</ele>
        <time>2023-11-01T21:32:59Z</time>
      </trkpt>
      <trkpt lat="47.61316" lon="-3.1173">
        <ele>21</ele>
        <time>2023-11-01T21:34:11Z</time>
      </trkpt>
      <trkpt lat="47.6135" lon="-3.11776">
        <ele>23</ele>
        <time>2023-11-01T21:35:12Z</time>
      </trkpt>
      <trkpt lat="47.61428" lon="-3.11821">
        <ele>27</ele>
        <time>2023-11-01T21:37:04Z</time>
      </trkpt>
      <trkpt lat="47.61413" lon="-3.11839">
        <ele>28</ele>
        <time>2023-11-01T21:37:30Z</time>
      </trkpt>
      <trkpt lat="47.6142" lon="-3.11856">
        <ele>28</ele>
        <time>2023-11-01T21:37:48Z</time>
      </trkpt>
      <trkpt lat="47.61436" lon="-3.11847">
        <ele>27</ele>
        <time>2023-11-01T21:38:10Z</time>
      </trkpt>
      <trkpt lat="47.61432" lon="-3.11816">
        <ele>26</ele>
        <time>2023-11-01T21:38:39Z</time>
      </trkpt>
      <trkpt lat="47.61355" lon="-3.1177">
        <ele>23</ele>
        <time>2023-11-01T21:40:30Z</time>
      </trkpt>
      <trkpt lat="47.6132" lon="-3.11724">
        <ele>21</ele>
        <time>2023-11-01T21:41:32Z</time>
      </trkpt>
      <trkpt lat="47.61271" lon="-3.11684">
        <ele>18</ele>
        <time>2023-11-01T21:42:47Z</time>
      </trkpt>
      <trkpt lat="47.61295" lon="-3.11643">
        <ele>18</ele>
        <time>2023-11-01T21:43:35Z</time>
      </trkpt>
      <trkpt lat="47.61339" lon="-3.11609">
        <ele>18</ele>
        <time>2023-11-01T21:44:42Z</time>
      </trkpt>
      <trkpt lat="47.61388" lon="-3.11549">
        <ele>18</ele>
        <time>2023-11-01T21:46:06Z</time>
      </trkpt>
      <trkpt lat="47.61441" lon="-3.11476">
        <ele>18</ele>
        <time>2023-11-01T21:47:43Z</time>
      </trkpt>
      <trkpt lat="47.6154" lon="-3.11368">
        <ele>18</ele>
        <time>2023-11-01T21:50:27Z</time>
      </trkpt>
      <trkpt lat="47.61638" lon="-3.11257">
        <ele>21</ele>
        <time>2023-11-01T21:53:12Z</time>
      </trkpt>
      <trkpt lat="47.6182" lon="-3.11095">
        <ele>22</ele>
        <time>2023-11-01T21:57:55Z</time>
      </trkpt>
      <trkpt lat="47.61991" lon="-3.10993">
        <ele>20</ele>
        <time>2023-11-01T22:02:01Z</time>
      </trkpt>
      <trkpt lat="47.6199" lon="-3.11128">
        <ele>21</ele>
        <time>2023-11-01T22:04:02Z</time>
      </trkpt>
      <trkpt lat="47.61985" lon="-3.11233">
        <ele>20</ele>
        <time>2023-11-01T22:05:37Z</time>
      </trkpt>
      <trkpt lat="47.61986" lon="-3.11297">
        <ele>20</ele>
        <time>2023-11-01T22:06:34Z</time>
      </trkpt>
      <trkpt lat="47.61964" lon="-3.11351">
        <ele>20</ele>
        <time>2023-11-01T22:07:31Z</time>
      </trkpt>
      <trkpt lat="47.61943" lon="-3.11414">
        <ele>20</ele>
        <time>2023-11-01T22:08:34Z</time>
      </trkpt>
      <trkpt lat="47.61922" lon="-3.11448">
        <ele>19</ele>
        <time>2023-11-01T22:09:16Z</time>
      </trkpt>
      <trkpt lat="47.61893" lon="-3.1147">
        <ele>18</ele>
        <time>2023-11-01T22:09:59Z</time>
      </trkpt>
      <trkpt lat="47.61843" lon="-3.11494">
        <ele>17</ele>
        <time>2023-11-01T22:11:09Z</time>
      </trkpt>
      <trkpt lat="47.61841" lon="-3.11571">
        <ele>17</ele>
        <time>2023-11-01T22:12:19Z</time>
      </trkpt>
      <trkpt lat="47.61813" lon="-3.11651">
        <ele>17</ele>
        <time>2023-11-01T22:13:40Z</time>
      </trkpt>
      <trkpt lat="47.61808" lon="-3.11689">
        <ele>17</ele>
        <time>2023-11-01T22:14:15Z</time>
      </trkpt>
      <trkpt lat="47.61793" lon="-3.11721">
        <ele>18</ele>
        <time>2023-11-01T22:14:50Z</time>
      </trkpt>
      <trkpt lat="47.61741" lon="-3.11802">
        <ele>19</ele>
        <time>2023-11-01T22:16:30Z</time>
      </trkpt>
      <trkpt lat="47.61697" lon="-3.11881">
        <ele>19</ele>
        <time>2023-11-01T22:18:03Z</time>
      </trkpt>
      <trkpt lat="47.61678" lon="-3.12095">
        <ele>20</ele>
        <time>2023-11-01T22:21:17Z</time>
      </trkpt>
      <trkpt lat="47.61662" lon="-3.12129">
        <ele>20</ele>
        <time>2023-11-01T22:21:54Z</time>
      </trkpt>
      <trkpt lat="47.61649" lon="-3.1213">
        <ele>20</ele>
        <time>2023-11-01T22:22:11Z</time>
      </trkpt>
      <trkpt lat="47.61626" lon="-3.12166">
        <ele>20</ele>
        <time>2023-11-01T22:22:56Z</time>
      </trkpt>
      <trkpt lat="47.61636" lon="-3.12281">
        <ele>19</ele>
        <time>2023-11-01T22:24:40Z</time>
      </trkpt>
      <trkpt lat="47.61664" lon="-3.12356">
        <ele>18</ele>
        <time>2023-11-01T22:25:57Z</time>
      </trkpt>
      <trkpt lat="47.61651" lon="-3.12383">
        <ele>18</ele>
        <time>2023-11-01T22:26:27Z</time>
      </trkpt>
      <trkpt lat="47.61667" lon="-3.12409">
        <ele>17</ele>
        <time>2023-11-01T22:26:59Z</time>
      </trkpt>
      <trkpt lat="47.6173" lon="-3.12412">
        <ele>17</ele>
        <time>2023-11-01T22:28:23Z</time>
      </trkpt>
      <trkpt lat="47.61763" lon="-3.12383">
        <ele>18</ele>
        <time>2023-11-01T22:29:14Z</time>
      </trkpt>
      <trkpt lat="47.61826" lon="-3.12382">
        <ele>20</ele>
        <time>2023-11-01T22:30:38Z</time>
      </trkpt>
      <trkpt lat="47.61866" lon="-3.12408">
        <ele>19</ele>
        <time>2023-11-01T22:31:37Z</time>
      </trkpt>
      <trkpt lat="47.61907" lon="-3.12456">
        <ele>19</ele>
        <time>2023-11-01T22:32:46Z</time>
      </trkpt>
      <trkpt lat="47.61973" lon="-3.12469">
        <ele>18</ele>
        <time>2023-11-01T22:34:15Z</time>
      </trkpt>
      <trkpt lat="47.62033" lon="-3.12448">
        <ele>18</ele>
        <time>2023-11-01T22:35:37Z</time>
      </trkpt>
      <trkpt lat="47.62117" lon="-3.12504">
        <ele>19</ele>
        <time>2023-11-01T22:37:40Z</time>
      </trkpt>
      <trkpt lat="47.62182" lon="-3.125">
        <ele>20</ele>
        <time>2023-11-01T22:39:07Z</time>
      </trkpt>
      <trkpt lat="47.62288" lon="-3.12519">
        <ele>21</ele>
        <time>2023-11-01T22:41:30Z</time>
      </trkpt>
      <trkpt lat="47.6231" lon="-3.12533">
        <ele>21</ele>
        <time>2023-11-01T22:42:02Z</time>
      </trkpt>
      <trkpt lat="47.62351" lon="-3.12607">
        <ele>22</ele>
        <time>2023-11-01T22:43:28Z</time>
      </trkpt>
      <trkpt lat="47.62376" lon="-3.12623">
        <ele>23</ele>
        <time>2023-11-01T22:44:04Z</time>
      </trkpt>
      <trkpt lat="47.6241" lon="-3.12641">
        <ele>24</ele>
        <time>2023-11-01T22:44:52Z</time>
      </trkpt>
      <trkpt lat="47.62405" lon="-3.12668">
        <ele>24</ele>
        <time>2023-11-01T22:45:17Z</time>
      </trkpt>
      <trkpt lat="47.62408" lon="-3.12703">
        <ele>23</ele>
        <time>2023-11-01T22:45:49Z</time>
      </trkpt>
      <trkpt lat="47.62429" lon="-3.12692">
        <ele>23</ele>
        <time>2023-11-01T22:46:19Z</time>
      </trkpt>
      <trkpt lat="47.62466" lon="-3.12702">
        <ele>23</ele>
        <time>2023-11-01T22:47:09Z</time>
      </trkpt>
      <trkpt lat="47.62487" lon="-3.12711">
        <ele>23</ele>
        <time>2023-11-01T22:47:38Z</time>
      </trkpt>
      <trkpt lat="47.62538" lon="-3.1272">
        <ele>22</ele>
        <time>2023-11-01T22:48:47Z</time>
      </trkpt>
      <trkpt lat="47.62542" lon="-3.12737">
        <ele>22</ele>
        <time>2023-11-01T22:49:03Z</time>
      </trkpt>
      <trkpt lat="47.62525" lon="-3.12801">
        <ele>21</ele>
        <time>2023-11-01T22:50:05Z</time>
      </trkpt>
      <trkpt lat="47.62515" lon="-3.12844">
        <ele>20</ele>
        <time>2023-11-01T22:50:46Z</time>
      </trkpt>
      <trkpt lat="47.62538" lon="-3.12882">
        <ele>20</ele>
        <time>2023-11-01T22:51:32Z</time>
      </trkpt>
      <trkpt lat="47.62553" lon="-3.12958">
        <ele>20</ele>
        <time>2023-11-01T22:52:43Z</time>
      </trkpt>
      <trkpt lat="47.62575" lon="-3.12971">
        <ele>21</ele>
        <time>2023-11-01T22:53:14Z</time>
      </trkpt>
      <trkpt lat="47.62623" lon="-3.12983">
        <ele>21</ele>
        <time>2023-11-01T22:54:19Z</time>
      </trkpt>
      <trkpt lat="47.62667" lon="-3.13031">
        <ele>20</ele>
        <time>2023-11-01T22:55:32Z</time>
      </trkpt>
      <trkpt lat="47.62703" lon="-3.13108">
        <ele>19</ele>
        <time>2023-11-01T22:56:57Z</time>
      </trkpt>
      <trkpt lat="47.62748" lon="-3.13159">
        <ele>18</ele>
        <time>2023-11-01T22:58:12Z</time>
      </trkpt>
      <trkpt lat="47.62772" lon="-3.13212">
        <ele>19</ele>
        <time>2023-11-01T22:59:10Z</time>
      </trkpt>
      <trkpt lat="47.62796" lon="-3.13268">
        <ele>20</ele>
        <time>2023-11-01T23:00:09Z</time>
      </trkpt>
      <trkpt lat="47.62822" lon="-3.13335">
        <ele>19</ele>
        <time>2023-11-01T23:01:19Z</time>
      </trkpt>
      <trkpt lat="47.62848" lon="-3.13406">
        <ele>19</ele>
        <time>2023-11-01T23:02:31Z</time>
      </trkpt>
      <trkpt lat="47.62838" lon="-3.13497">
        <ele>20</ele>
        <time>2023-11-01T23:03:54Z</time>
      </trkpt>
      <trkpt lat="47.62832" lon="-3.13534">
        <ele>20</ele>
        <time>2023-11-01T23:04:29Z</time>
      </trkpt>
      <trkpt lat="47.62851" lon="-3.13559">
        <ele>19</ele>
        <time>2023-11-01T23:05:02Z</time>
      </trkpt>
      <trkpt lat="47.62891" lon="-3.13594">
        <ele>19</ele>
        <time>2023-11-01T23:06:04Z</time>
      </trkpt>
      <trkpt lat="47.6289" lon="-3.13686">
        <ele>20</ele>
        <time>2023-11-01T23:07:27Z</time>
      </trkpt>
      <trkpt lat="47.6292" lon="-3.13695">
        <ele>20</ele>
        <time>2023-11-01T23:08:08Z</time>
      </trkpt>
      <trkpt lat="47.62958" lon="-3.13704">
        <ele>21</ele>
        <time>2023-11-01T23:08:59Z</time>
      </trkpt>
      <trkpt lat="47.62994" lon="-3.137">
        <ele>21</ele>
        <time>2023-11-01T23:09:48Z</time>
      </trkpt>
      <trkpt lat="47.63047" lon="-3.13728">
        <ele>22</ele>
        <time>2023-11-01T23:11:03Z</time>
      </trkpt>
      <trkpt lat="47.63078" lon="-3.13734">
        <ele>22</ele>
        <time>2023-11-01T23:11:44Z</time>
      </trkpt>
      <trkpt lat="47.63124" lon="-3.13734">
        <ele>21</ele>
        <time>2023-11-01T23:12:46Z</time>
      </trkpt>
      <trkpt lat="47.63152" lon="-3.13719">
        <ele>21</ele>
        <time>2023-11-01T23:13:25Z</time>
      </trkpt>
      <trkpt lat="47.63178" lon="-3.13717">
        <ele>21</ele>
        <time>2023-11-01T23:14:00Z</time>
      </trkpt>
      <trkpt lat="47.63207" lon="-3.13706">
        <ele>21</ele>
        <time>2023-11-01T23:14:40Z</time>
      </trkpt>
      <trkpt lat="47.63261" lon="-3.13754">
        <ele>21</ele>
        <time>2023-11-01T23:16:04Z</time>
      </trkpt>
      <trkpt lat="47.63283" lon="-3.13686">
        <ele>21</ele>
        <time>2023-11-01T23:17:12Z</time>
      </trkpt>
      <trkpt lat="47.63333" lon="-3.13661">
        <ele>20</ele>
        <time>2023-11-01T23:18:22Z</time>
      </trkpt>
      <trkpt lat="47.63365" lon="-3.13653">
        <ele>20</ele>
        <time>2023-11-01T23:19:06Z</time>
      </trkpt>
      <trkpt lat="47.63476" lon="-3.13641">
        <ele>19</ele>
        <time>2023-11-01T23:21:34Z</time>
      </trkpt>
      <trkpt lat="47.63474" lon="-3.13684">
        <ele>19</ele>
        <time>2023-11-01T23:22:13Z</time>
      </trkpt>
      <trkpt lat="47.63434" lon="-3.13708">
        <ele>19</ele>
        <time>2023-11-01T23:23:11Z</time>
      </trkpt>
      <trkpt lat="47.63407" lon="-3.13715">
        <ele>20</ele>
        <time>2023-11-01T23:23:47Z</time>
      </trkpt>
      <trkpt lat="47.6338" lon="-3.13747">
        <ele>20</ele>
        <time>2023-11-01T23:24:33Z</time>
      </trkpt>
      <trkpt lat="47.63374" lon="-3.13804">
        <ele>20</ele>
        <time>2023-11-01T23:25:25Z</time>
      </trkpt>
      <trkpt lat="47.63378" lon="-3.13874">
        <ele>19</ele>
        <time>2023-11-01T23:26:28Z</time>
      </trkpt>
      <trkpt lat="47.6343" lon="-3.13951">
        <ele>18</ele>
        <time>2023-11-01T23:28:06Z</time>
      </trkpt>
      <trkpt lat="47.63453" lon="-3.14006">
        <ele>18</ele>
        <time>2023-11-01T23:29:05Z</time>
      </trkpt>
      <trkpt lat="47.63454" lon="-3.14073">
        <ele>18</ele>
        <time>2023-11-01T23:30:05Z</time>
      </trkpt>
      <trkpt lat="47.63462" lon="-3.14116">
        <ele>18</ele>
        <time>2023-11-01T23:30:45Z</time>
      </trkpt>
      <trkpt lat="47.63459" lon="-3.14158">
        <ele>17</ele>
        <time>2023-11-01T23:31:23Z</time>
      </trkpt>
      <trkpt lat="47.63428" lon="-3.14246">
        <ele>16</ele>
        <time>2023-11-01T23:32:52Z</time>
      </trkpt>
      <trkpt lat="47.63449" lon="-3.14261">
        <ele>16</ele>
        <time>2023-11-01T23:33:23Z</time>
      </trkpt>
      <trkpt lat="47.63463" lon="-3.14404">
        <ele>17</ele>
        <time>2023-11-01T23:35:33Z</time>
      </trkpt>
      <trkpt lat="47.63465" lon="-3.14465">
        <ele>16</ele>
        <time>2023-11-01T23:36:28Z</time>
      </trkpt>
      <trkpt lat="47.63507" lon="-3.14518">
        <ele>16</ele>
        <time>2023-11-01T23:37:42Z</time>
      </trkpt>
      <trkpt lat="47.63554" lon="-3.14685">
        <ele>17</ele>
        <time>2023-11-01T23:40:24Z</time>
      </trkpt>
      <trkpt lat="47.63589" lon="-3.14733">
        <ele>19</ele>
        <time>2023-11-01T23:41:28Z</time>
      </trkpt>
      <trkpt lat="47.63647" lon="-3.14797">
        <ele>19</ele>
        <time>2023-11-01T23:43:05Z</time>
      </trkpt>
      <trkpt lat="47.63583" lon="-3.14865">
        <ele>19</ele>
        <time>2023-11-01T23:44:50Z</time>
      </trkpt>
      <trkpt lat="47.63485" lon="-3.14858">
        <ele>17</ele>
        <time>2023-11-01T23:47:00Z</time>
      </trkpt>
      <trkpt lat="47.63484" lon="-3.14903">
        <ele>17</ele>
        <time>2023-11-01T23:47:41Z</time>
      </trkpt>
    </trkseg>
  </trk>
</gpx>